Time;durP1;ratioP1;P1;durP2;ratioP2;P2;SDS_P1;SDS_P2;PMS_P1;PMS_P2;Temp;Humidity;BMP_temperature;BMP_pressure;BME280_temperature;BME280_humidity;BME280_pressure;Samples;Min_cycle;Max_cycle;Signal;HPM_P1;HPM_P2
2022/03/17 00:01:10;;;;;;;70.18;38.63;;;;;;;5.03;81.42;102277.06;7396811;19;20471;-65
2022/03/17 00:03:38;;;;;;;68.72;37.70;;;;;;;5.00;81.58;102270.06;7397799;19;20019;-65
2022/03/17 00:06:08;;;;;;;64.93;37.95;;;;;;;4.99;81.50;102267.44;7399512;19;20031;-64
2022/03/17 00:08:36;;;;;;;64.47;36.50;;;;;;;4.97;81.51;102272.59;7399402;19;20024;-65
2022/03/17 00:11:07;;;;;;;71.88;39.13;;;;;;;4.95;81.47;102276.88;7398955;19;20361;-65
2022/03/17 00:13:35;;;;;;;69.72;39.90;;;;;;;4.93;81.65;102267.25;7396974;19;20386;-64
2022/03/17 00:16:04;;;;;;;68.57;37.45;;;;;;;4.85;81.89;102267.06;7397718;19;20031;-65
2022/03/17 00:18:32;;;;;;;69.25;38.03;;;;;;;4.87;81.97;102278.41;7398135;19;20022;-65
2022/03/17 00:21:00;;;;;;;69.45;39.25;;;;;;;4.85;81.97;102274.88;7398948;19;20026;-65
2022/03/17 00:23:28;;;;;;;72.75;38.08;;;;;;;4.83;81.94;102264.44;7397317;19;20039;-66
2022/03/17 00:25:56;;;;;;;68.85;37.95;;;;;;;4.81;82.22;102260.03;7396568;19;20022;-64
2022/03/17 00:28:27;;;;;;;73.70;40.00;;;;;;;4.79;82.33;102272.09;7396853;19;20023;-64
2022/03/17 00:30:55;;;;;;;71.57;40.28;;;;;;;4.77;82.30;102271.19;7396530;19;20022;-64
2022/03/17 00:33:23;;;;;;;70.75;38.33;;;;;;;4.75;82.35;102275.47;7397621;19;20022;-65
2022/03/17 00:35:52;;;;;;;73.32;40.58;;;;;;;4.72;82.48;102266.72;7396282;19;20026;-63
2022/03/17 00:38:21;;;;;;;71.13;37.70;;;;;;;4.72;82.42;102263.25;7396090;19;20058;-64
2022/03/17 00:40:49;;;;;;;68.13;38.13;;;;;;;4.69;82.80;102258.88;7398604;19;20437;-64
2022/03/17 00:43:18;;;;;;;69.95;38.50;;;;;;;4.67;82.78;102255.31;7396332;19;20468;-63
2022/03/17 00:45:50;;;;;;;70.00;38.25;;;;;;;4.66;83.10;102252.69;7396284;19;20019;-63
2022/03/17 00:48:18;;;;;;;70.10;39.40;;;;;;;4.64;83.00;102243.97;7396447;19;20011;-62
2022/03/17 00:50:46;;;;;;;75.50;39.90;;;;;;;4.62;83.18;102243.94;7395893;19;20019;-64
2022/03/17 00:53:14;;;;;;;70.63;38.33;;;;;;;4.61;83.21;102247.34;7395638;19;20035;-64
2022/03/17 00:55:42;;;;;;;72.13;38.65;;;;;;;4.59;83.18;102250.75;7395709;19;20030;-65
2022/03/17 00:58:11;;;;;;;69.72;38.38;;;;;;;4.58;83.31;102255.09;7395015;19;20409;-64
2022/03/17 01:00:40;;;;;;;73.53;39.00;;;;;;;4.55;83.31;102245.50;7395607;19;20019;-64
2022/03/17 01:03:10;;;;;;;69.88;38.42;;;;;;;4.57;83.42;102255.91;7396083;19;20512;-64
2022/03/17 01:05:39;;;;;;;69.90;37.30;;;;;;;4.55;83.14;102253.28;7395938;19;20031;-64
2022/03/17 01:08:07;;;;;;;71.47;38.53;;;;;;;4.55;83.39;102247.22;7397015;19;20359;-64
2022/03/17 01:10:35;;;;;;;72.22;39.85;;;;;;;4.53;83.72;102248.88;7397329;19;20022;-64
2022/03/17 01:13:04;;;;;;;67.22;37.60;;;;;;;4.51;83.63;102240.16;7395300;19;20022;-64
2022/03/17 01:15:32;;;;;;;68.10;37.13;;;;;;;4.49;83.69;102247.91;7395202;19;20022;-64
2022/03/17 01:18:02;;;;;;;71.95;38.55;;;;;;;4.49;83.76;102249.66;7396953;19;20026;-64
2022/03/17 01:20:33;;;;;;;70.20;39.42;;;;;;;4.47;83.66;102244.38;7396994;19;20019;-64
2022/03/17 01:23:01;;;;;;;66.72;38.42;;;;;;;4.45;83.77;102248.69;7396363;19;20035;-64
2022/03/17 01:25:29;;;;;;;75.05;39.28;;;;;;;4.44;84.05;102243.44;7394969;19;20014;-63
2022/03/17 01:27:57;;;;;;;68.25;38.17;;;;;;;4.44;83.94;102248.66;7394203;19;20018;-63
2022/03/17 01:30:26;;;;;;;66.30;37.33;;;;;;;4.39;83.91;102241.56;7394837;19;20018;-63
2022/03/17 01:32:54;;;;;;;68.65;39.05;;;;;;;4.40;84.16;102243.34;7395739;19;20041;-64
2022/03/17 01:35:22;;;;;;;69.35;37.45;;;;;;;4.39;84.20;102240.72;7396837;19;20015;-64
2022/03/17 01:37:53;;;;;;;72.13;38.75;;;;;;;4.37;84.14;102237.19;7394627;19;20039;-64
2022/03/17 01:40:21;;;;;;;71.40;38.38;;;;;;;4.36;84.31;102235.41;7394938;19;20022;-64
2022/03/17 01:42:49;;;;;;;67.43;38.38;;;;;;;4.33;84.35;102225.81;7395046;19;20021;-64
2022/03/17 01:45:18;;;;;;;71.65;39.00;;;;;;;4.32;84.70;102224.06;7396135;19;20045;-64
2022/03/17 01:47:47;;;;;;;70.90;39.10;;;;;;;4.29;84.67;102218.78;7394527;19;20015;-64
2022/03/17 01:50:17;;;;;;;66.18;38.67;;;;;;;4.28;84.76;102227.41;7395623;19;20390;-64
2022/03/17 01:52:46;;;;;;;66.88;37.75;;;;;;;4.26;84.84;102225.59;7394488;19;20039;-64
2022/03/17 01:55:20;;;;;;;70.57;39.47;;;;;;;4.22;85.16;102214.25;7395366;19;20378;-64
2022/03/17 01:57:49;;;;;;;66.35;38.20;;;;;;;4.20;85.27;102209.00;7396252;19;20026;-64
2022/03/17 02:00:24;;;;;;;76.75;40.75;;;;;;;4.20;85.06;102213.34;7393722;19;20480;-64
2022/03/17 02:02:54;;;;;;;73.65;40.00;;;;;;;4.18;85.37;102209.81;7394910;19;20035;-64
2022/03/17 02:05:23;;;;;;;72.68;39.08;;;;;;;4.18;85.08;102209.81;7396017;19;20018;-64
2022/03/17 02:07:52;;;;;;;68.22;39.28;;;;;;;4.18;85.35;102215.00;7393918;19;20045;-64
2022/03/17 02:10:24;;;;;;;68.18;39.10;;;;;;;4.17;85.16;102218.44;7393773;19;20045;-64
2022/03/17 02:15:42;;;;;;;70.60;40.45;;;;;;;4.15;85.47;102212.31;7392452;19;20474;-66
2022/03/17 02:18:10;;;;;;;75.68;40.17;;;;;;;4.13;85.61;102201.00;7394893;19;20022;-65
2022/03/17 02:20:39;;;;;;;68.35;39.75;;;;;;;4.14;86.06;102202.78;7395862;19;20015;-64
2022/03/17 02:25:52;;;;;;;72.82;40.95;;;;;;;4.13;85.81;102201.00;7395187;19;20010;-64
2022/03/17 02:28:21;;;;;;;75.55;41.25;;;;;;;4.12;86.04;102200.13;7393244;19;20019;-64
2022/03/17 02:30:49;;;;;;;72.65;40.47;;;;;;;4.11;85.86;102203.56;7393208;19;20014;-64
2022/03/17 02:33:18;;;;;;;73.38;41.55;;;;;;;4.12;86.07;102204.44;7393784;19;20023;-64
2022/03/17 02:35:47;;;;;;;69.93;38.35;;;;;;;4.11;86.00;102206.16;7392966;19;20029;-64
2022/03/17 02:38:19;;;;;;;71.82;40.33;;;;;;;4.12;86.12;102204.44;7394906;19;20014;-64
2022/03/17 02:40:50;;;;;;;70.80;40.20;;;;;;;4.10;85.98;102200.94;7399713;19;20019;-63
2022/03/17 02:43:19;;;;;;;71.72;41.72;;;;;;;4.06;86.28;102200.81;7398850;19;20100;-64
2022/03/17 02:45:48;;;;;;;77.18;41.45;;;;;;;4.08;85.81;102203.47;7402183;19;20041;-64
2022/03/17 02:48:17;;;;;;;75.70;40.65;;;;;;;4.07;85.81;102205.19;7402143;19;20039;-64
2022/03/17 02:50:46;;;;;;;75.53;40.60;;;;;;;4.07;85.88;102204.31;7398993;19;20033;-64
2022/03/17 02:53:15;;;;;;;72.13;41.60;;;;;;;4.04;86.79;102207.72;7398891;19;20026;-64
2022/03/17 02:55:46;;;;;;;75.13;42.25;;;;;;;4.03;86.01;102210.25;7401734;19;20019;-64
2022/03/17 02:58:15;;;;;;;78.60;42.95;;;;;;;4.02;86.12;102201.59;7401673;19;20374;-64
2022/03/17 03:00:44;;;;;;;76.60;41.63;;;;;;;4.01;86.50;102202.41;7398843;19;20027;-64
2022/03/17 03:03:16;;;;;;;71.22;41.03;;;;;;;4.00;86.54;102199.78;7400071;19;20022;-64
2022/03/17 03:05:44;;;;;;;72.60;39.35;;;;;;;3.98;86.27;102199.75;7401259;19;20379;-65
2022/03/17 03:08:13;;;;;;;73.07;41.20;;;;;;;3.98;86.41;102196.25;7401512;19;20035;-64
2022/03/17 03:10:41;;;;;;;75.07;41.95;;;;;;;3.95;86.37;102186.66;7401405;19;20018;-63
2022/03/17 03:13:12;;;;;;;72.65;41.05;;;;;;;3.93;86.31;102185.75;7398578;19;20331;-64
2022/03/17 03:15:41;;;;;;;74.95;41.78;;;;;;;3.93;86.61;102193.53;7403189;19;20021;-66
2022/03/17 03:18:10;;;;;;;71.55;43.30;;;;;;;3.92;86.24;102191.78;7401169;19;20049;-63
2022/03/17 03:20:38;;;;;;;76.38;43.28;;;;;;;3.91;86.13;102192.59;7398707;19;20022;-64
2022/03/17 03:23:07;;;;;;;75.53;42.05;;;;;;;3.89;86.54;102189.97;7400551;19;20014;-64
2022/03/17 03:25:35;;;;;;;79.72;42.55;;;;;;;3.86;86.43;102202.84;7402062;19;20018;-64
2022/03/17 03:28:14;;;;;;;80.07;44.45;;;;;;;3.85;86.70;102210.59;7401466;19;20022;-64
2022/03/17 03:30:45;;;;;;;77.80;44.08;;;;;;;3.84;86.52;102201.94;7401057;19;20018;-64
2022/03/17 03:33:13;;;;;;;75.60;43.75;;;;;;;3.82;86.46;102203.59;7399382;19;20086;-64
2022/03/17 03:38:22;;;;;;;78.28;42.25;;;;;;;3.79;86.65;102200.03;7400821;19;20370;-64
2022/03/17 03:40:50;;;;;;;84.10;44.03;;;;;;;3.78;86.49;102193.06;7398068;19;20031;-65
2022/03/17 03:43:18;;;;;;;78.20;45.67;;;;;;;3.78;86.44;102193.06;7397432;19;20032;-65
2022/03/17 03:45:50;;;;;;;75.20;43.85;;;;;;;3.76;86.50;102190.44;7400315;19;20089;-65
2022/03/17 03:48:18;;;;;;;81.78;45.00;;;;;;;3.74;86.65;102185.19;7400369;19;20024;-65
2022/03/17 03:50:46;;;;;;;79.22;43.30;;;;;;;3.73;86.80;102183.44;7398052;19;20010;-65
2022/03/17 03:53:14;;;;;;;78.15;43.97;;;;;;;3.71;86.90;102181.63;7398203;19;20551;-65
2022/03/17 03:55:43;;;;;;;76.68;44.55;;;;;;;3.70;86.89;102178.16;7400294;19;20031;-65
2022/03/17 03:58:11;;;;;;;82.30;46.08;;;;;;;3.69;86.98;102179.00;7397086;19;20022;-64
2022/03/17 04:00:41;;;;;;;78.10;44.03;;;;;;;3.67;86.69;102177.19;7397914;19;20018;-65
2022/03/17 04:03:12;;;;;;;75.35;43.83;;;;;;;3.66;86.68;102184.06;7398310;19;20028;-65
2022/03/17 04:05:40;;;;;;;78.93;45.30;;;;;;;3.66;86.86;102193.59;7400018;19;20026;-65
2022/03/17 04:08:08;;;;;;;82.82;46.20;;;;;;;3.65;86.73;102190.13;7397191;19;20031;-65
2022/03/17 04:10:37;;;;;;;76.20;43.45;;;;;;;3.64;86.66;102190.97;7399378;19;20010;-64
2022/03/17 04:13:05;;;;;;;77.72;44.15;;;;;;;3.63;86.70;102188.28;7396664;19;20434;-65
2022/03/17 04:15:33;;;;;;;81.80;45.60;;;;;;;3.62;86.79;102200.41;7399776;19;20018;-65
2022/03/17 04:18:01;;;;;;;80.90;46.85;;;;;;;3.63;86.63;102193.47;7397279;19;20022;-65
2022/03/17 04:20:32;;;;;;;82.20;46.00;;;;;;;3.61;86.63;102198.63;7397324;19;20018;-65
2022/03/17 04:23:01;;;;;;;80.07;46.28;;;;;;;3.61;86.86;102202.94;7399036;19;20015;-65
2022/03/17 04:25:29;;;;;;;85.03;47.78;;;;;;;3.59;86.86;102197.72;7397314;19;20475;-65
2022/03/17 04:27:57;;;;;;;87.10;48.08;;;;;;;3.57;86.90;102197.66;7399160;19;20015;-64
2022/03/17 04:30:25;;;;;;;80.95;46.70;;;;;;;3.56;86.72;102208.91;7396483;19;20475;-64
2022/03/17 04:32:53;;;;;;;77.82;45.50;;;;;;;3.56;86.67;102203.69;7396233;19;20374;-64
2022/03/17 04:35:22;;;;;;;79.07;46.33;;;;;;;3.54;86.76;102213.16;7398166;19;20377;-65
2022/03/17 04:37:52;;;;;;;78.25;45.33;;;;;;;3.56;86.63;102213.19;7398477;19;20018;-65
2022/03/17 04:40:20;;;;;;;77.72;47.22;;;;;;;3.54;86.62;102218.34;7396568;19;20019;-65
2022/03/17 04:42:48;;;;;;;83.15;46.92;;;;;;;3.53;86.75;102220.88;7397135;19;20023;-66
2022/03/17 04:45:17;;;;;;;81.88;45.55;;;;;;;3.51;86.72;102214.75;7396350;19;20035;-65
2022/03/17 04:47:45;;;;;;;88.05;48.75;;;;;;;3.50;86.71;102202.59;7395831;19;20035;-65
2022/03/17 04:50:13;;;;;;;83.90;47.90;;;;;;;3.49;86.75;102206.03;7395960;19;20022;-64
2022/03/17 04:55:25;;;;;;;82.53;49.15;;;;;;;3.45;86.71;102206.78;7398803;19;20073;-64
2022/03/17 04:57:53;;;;;;;84.50;48.40;;;;;;;3.45;86.69;102204.19;7399101;19;20019;-65
2022/03/17 05:00:21;;;;;;;81.93;48.83;;;;;;;3.42;86.90;102200.69;7396932;19;20026;-64
2022/03/17 05:02:50;;;;;;;85.00;49.00;;;;;;;3.41;86.67;102203.19;7396505;19;20025;-64
2022/03/17 05:05:18;;;;;;;83.55;48.85;;;;;;;3.39;86.67;102197.09;7397628;19;20015;-64
2022/03/17 05:07:46;;;;;;;81.72;46.85;;;;;;;3.38;86.76;102204.00;7395229;19;20026;-65
2022/03/17 05:10:15;;;;;;;81.57;46.22;;;;;;;3.36;86.98;102197.91;7395022;19;20023;-66
2022/03/17 05:12:46;;;;;;;86.35;49.60;;;;;;;3.34;86.93;102196.09;7396708;19;20496;-66
2022/03/17 05:15:14;;;;;;;85.57;49.90;;;;;;;3.33;87.20;102194.31;7395970;19;20022;-64
2022/03/17 05:17:43;;;;;;;88.38;49.92;;;;;;;3.29;87.07;102190.75;7395359;19;20014;-65
2022/03/17 05:20:13;;;;;;;86.07;50.22;;;;;;;3.29;87.12;102198.53;7394624;19;20373;-64
2022/03/17 05:22:41;;;;;;;86.53;48.90;;;;;;;3.27;87.41;102205.38;7396480;19;20019;-65
2022/03/17 05:25:10;;;;;;;85.28;49.17;;;;;;;3.26;86.97;102211.38;7395287;19;20039;-65
2022/03/17 05:27:39;;;;;;;92.15;51.53;;;;;;;3.25;86.91;102209.63;7395401;19;20022;-65
2022/03/17 05:30:13;;;;;;;89.25;51.85;;;;;;;3.25;87.04;102209.63;7395447;19;20043;-65
2022/03/17 05:32:42;;;;;;;83.13;48.65;;;;;;;3.24;87.11;102206.16;7394878;19;20018;-65
2022/03/17 05:35:11;;;;;;;90.70;52.88;;;;;;;3.23;86.97;102206.09;7395931;19;20417;-64
2022/03/17 05:37:40;;;;;;;85.82;50.30;;;;;;;3.21;87.23;102220.72;7394548;19;20041;-65
2022/03/17 05:40:13;;;;;;;84.35;50.88;;;;;;;3.22;87.07;102225.09;7396250;19;20022;-65
2022/03/17 05:42:42;;;;;;;92.50;51.30;;;;;;;3.20;87.31;102221.59;7394155;19;20031;-65
2022/03/17 05:45:14;;;;;;;86.20;48.88;;;;;;;3.19;87.17;102222.41;7394273;19;20020;-65
2022/03/17 05:47:45;;;;;;;90.10;50.05;;;;;;;3.20;87.33;102221.59;7397525;19;20018;-65
2022/03/17 05:50:15;;;;;;;87.05;50.53;;;;;;;3.20;87.19;102224.19;7396868;19;20022;-65
2022/03/17 05:52:44;;;;;;;87.90;52.20;;;;;;;3.19;87.09;102227.59;7394785;19;20019;-65
2022/03/17 05:55:13;;;;;;;90.13;50.55;;;;;;;3.19;87.11;102223.28;7394345;19;20029;-64
2022/03/17 05:57:42;;;;;;;91.35;51.53;;;;;;;3.19;87.55;102225.00;7395038;19;20483;-64
2022/03/17 06:00:16;;;;;;;90.90;51.60;;;;;;;3.19;87.48;102233.66;7393687;19;20076;-65
2022/03/17 06:02:45;;;;;;;88.55;50.88;;;;;;;3.20;87.15;102226.78;7393987;19;20392;-64
2022/03/17 06:05:14;;;;;;;91.03;51.65;;;;;;;3.21;87.42;102225.91;7394443;19;20035;-64
2022/03/17 06:07:43;;;;;;;88.18;50.38;;;;;;;3.21;87.59;102225.91;7394582;19;20018;-65
2022/03/17 06:10:21;;;;;;;91.68;52.70;;;;;;;3.24;87.20;102223.44;7392913;19;20022;-65
2022/03/17 06:12:51;;;;;;;91.55;52.10;;;;;;;3.24;87.24;102221.72;7392709;19;20029;-64
2022/03/17 06:15:23;;;;;;;87.65;50.97;;;;;;;3.25;87.42;102223.47;7393024;19;20027;-65
2022/03/17 06:17:52;;;;;;;86.45;50.95;;;;;;;3.28;87.46;102220.09;7394610;19;20014;-64
2022/03/17 06:20:22;;;;;;;86.88;51.08;;;;;;;3.28;87.22;102219.22;7392684;19;20022;-65
2022/03/17 06:22:52;;;;;;;84.45;49.58;;;;;;;3.32;87.55;102223.69;7393245;19;20014;-66
2022/03/17 06:25:23;;;;;;;88.85;49.97;;;;;;;3.34;87.19;102222.91;7394489;19;20022;-67
2022/03/17 06:27:51;;;;;;;89.00;50.25;;;;;;;3.37;87.25;102227.31;7396274;19;20031;-66
2022/03/17 06:30:24;;;;;;;84.07;50.72;;;;;;;3.39;87.44;102229.09;7392991;19;20018;-66
2022/03/17 06:32:54;;;;;;;86.45;48.88;;;;;;;3.42;87.12;102225.72;7393446;19;20479;-66
2022/03/17 06:35:23;;;;;;;87.50;51.25;;;;;;;3.45;87.10;102233.63;7393709;19;20376;-68
2022/03/17 06:37:53;;;;;;;96.18;54.47;;;;;;;3.47;87.20;102231.06;7392862;19;20022;-66
2022/03/17 06:40:22;;;;;;;87.88;53.38;;;;;;;3.49;87.20;102227.69;7393498;19;20018;-67
2022/03/17 06:42:51;;;;;;;84.18;49.47;;;;;;;3.52;87.10;102234.69;7393654;19;20045;-66
2022/03/17 06:45:22;;;;;;;82.95;49.42;;;;;;;3.55;87.05;102239.97;7392350;19;20014;-67
2022/03/17 06:47:51;;;;;;;91.78;51.40;;;;;;;3.61;87.06;102239.28;7395054;19;20035;-67
2022/03/17 06:50:21;;;;;;;85.65;50.10;;;;;;;3.63;86.93;102241.09;7394149;19;20479;-67
2022/03/17 06:52:50;;;;;;;90.88;51.53;;;;;;;3.66;86.87;102241.19;7392847;19;20387;-65
2022/03/17 06:55:18;;;;;;;88.20;51.63;;;;;;;3.71;86.92;102244.78;7393715;19;20022;-68
2022/03/17 06:57:46;;;;;;;81.68;49.15;;;;;;;3.74;86.74;102236.22;7392374;19;20010;-67
2022/03/17 07:00:17;;;;;;;85.72;50.10;;;;;;;3.79;86.83;102233.78;7393836;19;20035;-67
2022/03/17 07:02:48;;;;;;;84.97;49.50;;;;;;;3.83;86.91;102238.22;7393754;19;20022;-66
2022/03/17 07:05:17;;;;;;;81.45;50.28;;;;;;;3.87;86.55;102235.75;7392034;19;20019;-66
2022/03/17 07:07:46;;;;;;;82.25;49.42;;;;;;;3.93;86.46;102237.69;7393846;19;20022;-68
2022/03/17 07:10:15;;;;;;;83.63;50.08;;;;;;;3.99;86.57;102236.97;7391469;19;20479;-67
2022/03/17 07:12:44;;;;;;;82.55;50.47;;;;;;;4.02;86.34;102234.44;7392008;19;20023;-67
2022/03/17 07:15:13;;;;;;;83.15;49.65;;;;;;;4.06;86.29;102234.59;7394027;19;20041;-67
2022/03/17 07:17:42;;;;;;;80.97;48.47;;;;;;;4.12;86.15;102241.69;7392058;19;20053;-67
2022/03/17 07:20:15;;;;;;;80.65;48.95;;;;;;;4.16;85.85;102243.53;7391544;19;20018;-67
2022/03/17 07:22:44;;;;;;;82.55;48.88;;;;;;;4.21;86.02;102241.09;7393138;19;20018;-67
2022/03/17 07:25:14;;;;;;;80.00;48.90;;;;;;;4.27;85.65;102240.34;7398503;19;20040;-66
2022/03/17 07:27:44;;;;;;;79.60;48.72;;;;;;;4.32;85.76;102251.75;7397566;19;20441;-66
2022/03/17 07:30:14;;;;;;;80.82;47.50;;;;;;;4.37;85.39;102252.78;7397277;19;20096;-66
2022/03/17 07:32:42;;;;;;;84.55;50.80;;;;;;;4.42;85.31;102248.56;7397296;19;20039;-67
2022/03/17 07:35:13;;;;;;;84.07;49.17;;;;;;;4.49;85.29;102253.13;7400124;19;20028;-67
2022/03/17 07:37:41;;;;;;;81.53;50.65;;;;;;;4.57;85.21;102254.22;7398401;19;20022;-70
2022/03/17 07:40:10;;;;;;;75.20;48.17;;;;;;;4.63;85.24;102256.09;7399549;19;20398;-65
2022/03/17 07:42:38;;;;;;;79.28;50.03;;;;;;;4.70;85.12;102254.53;7399343;19;20025;-65
2022/03/17 07:45:08;;;;;;;78.50;48.40;;;;;;;4.75;84.72;102252.06;7397134;19;20094;-65
2022/03/17 07:47:36;;;;;;;76.68;47.97;;;;;;;4.83;84.59;102258.38;7397918;19;20018;-67
2022/03/17 07:50:05;;;;;;;78.38;49.53;;;;;;;4.92;84.42;102262.94;7397961;19;20019;-67
2022/03/17 07:52:36;;;;;;;76.68;49.47;;;;;;;4.99;84.47;102265.72;7397779;19;20028;-67
2022/03/17 07:55:04;;;;;;;80.20;49.13;;;;;;;5.06;84.31;102264.16;7398220;19;20019;-67
2022/03/17 07:57:35;;;;;;;79.80;49.83;;;;;;;5.13;84.12;102267.78;7397509;19;20022;-67
2022/03/17 08:00:04;;;;;;;74.45;47.42;;;;;;;5.19;83.79;102260.13;7396876;19;20483;-68
2022/03/17 08:02:33;;;;;;;78.25;50.38;;;;;;;5.27;83.69;102255.09;7397200;19;20022;-66
2022/03/17 08:05:04;;;;;;;75.00;47.25;;;;;;;5.34;83.44;102254.41;7399626;19;20010;-67
2022/03/17 08:07:35;;;;;;;74.93;47.88;;;;;;;5.42;83.07;102254.59;7397538;19;20082;-67
2022/03/17 08:10:03;;;;;;;74.63;48.35;;;;;;;5.47;83.01;102258.19;7397933;19;20022;-67
2022/03/17 08:12:34;;;;;;;75.40;47.22;;;;;;;5.53;82.62;102259.25;7397268;19;20014;-65
2022/03/17 08:15:02;;;;;;;75.72;48.13;;;;;;;5.62;82.43;102261.16;7399546;19;20010;-66
2022/03/17 08:17:30;;;;;;;74.15;47.65;;;;;;;5.70;82.01;102261.34;7399287;19;20023;-66
2022/03/17 08:19:59;;;;;;;75.40;46.60;;;;;;;5.76;81.89;102258.00;7399644;19;20477;-68
2022/03/17 08:22:27;;;;;;;69.97;47.85;;;;;;;5.82;81.69;102261.59;7396229;19;20433;-72
2022/03/17 08:24:58;;;;;;;66.45;46.38;;;;;;;5.90;81.52;102258.28;7399048;19;20507;-66
2022/03/17 08:27:26;;;;;;;73.65;48.10;;;;;;;5.98;81.10;102256.75;7399861;19;20036;-66
2022/03/17 08:29:54;;;;;;;71.90;48.17;;;;;;;6.03;80.94;102258.63;7397195;19;20032;-66
2022/03/17 08:32:22;;;;;;;69.65;45.53;;;;;;;6.10;80.93;102256.16;7399674;19;20035;-66
2022/03/17 08:34:51;;;;;;;71.85;48.30;;;;;;;6.16;80.40;102262.38;7396637;19;20017;-66
2022/03/17 08:37:19;;;;;;;71.05;46.33;;;;;;;6.21;80.20;102254.66;7397229;19;20027;-66
2022/03/17 08:39:48;;;;;;;71.80;45.67;;;;;;;6.27;80.04;102256.50;7396284;19;20496;-66
2022/03/17 08:42:18;;;;;;;68.47;45.78;;;;;;;6.33;79.76;102265.34;7396177;19;20022;-65
2022/03/17 08:44:47;;;;;;;69.25;46.45;;;;;;;6.38;79.37;102259.34;7396830;19;20015;-65
2022/03/17 08:49:55;;;;;;;69.70;45.92;;;;;;;6.45;78.78;102256.88;7398461;19;20368;-65
2022/03/17 08:52:24;;;;;;;71.60;48.47;;;;;;;6.50;78.68;102251.75;7396149;19;20014;-65
2022/03/17 08:54:52;;;;;;;67.85;46.60;;;;;;;6.55;78.74;102249.25;7397867;19;20476;-65
2022/03/17 08:57:29;;;;;;;68.95;44.95;;;;;;;6.59;78.49;102256.28;7398213;19;20023;-65
2022/03/17 08:59:58;;;;;;;66.85;46.35;;;;;;;6.63;78.57;102252.84;7397984;19;20389;-65
2022/03/17 09:02:26;;;;;;;64.57;45.70;;;;;;;6.65;78.17;102241.59;7395986;19;20384;-66
2022/03/17 09:04:54;;;;;;;66.47;45.70;;;;;;;6.71;78.29;102251.28;7395736;19;20027;-65
2022/03/17 09:07:22;;;;;;;68.32;45.25;;;;;;;6.75;77.98;102245.28;7396015;19;20023;-64
2022/03/17 09:09:50;;;;;;;69.32;46.65;;;;;;;6.79;77.70;102247.06;7395877;19;20022;-66
2022/03/17 09:12:19;;;;;;;68.55;45.63;;;;;;;6.84;77.68;102242.81;7395454;19;20019;-66
2022/03/17 09:14:49;;;;;;;68.10;46.47;;;;;;;6.88;77.66;102248.09;7395188;19;20015;-65
2022/03/17 09:17:17;;;;;;;66.10;45.53;;;;;;;6.95;77.59;102245.63;7395709;19;20022;-65
2022/03/17 09:19:45;;;;;;;68.53;46.72;;;;;;;7.00;77.25;102251.81;7397299;19;20028;-65
2022/03/17 09:22:13;;;;;;;67.80;46.97;;;;;;;7.04;77.14;102246.63;7394664;19;20437;-65
2022/03/17 09:24:43;;;;;;;67.10;46.03;;;;;;;7.09;77.11;102248.47;7396998;19;20040;-66
2022/03/17 09:27:12;;;;;;;66.10;45.92;;;;;;;7.15;77.04;102250.28;7395195;19;20022;-66
2022/03/17 09:29:40;;;;;;;62.75;44.42;;;;;;;7.22;76.99;102252.16;7394962;19;20015;-66
2022/03/17 09:32:14;;;;;;;64.93;44.60;;;;;;;7.29;76.57;102253.13;7396651;19;20018;-65
2022/03/17 09:34:42;;;;;;;68.65;45.55;;;;;;;7.37;76.27;102258.47;7397262;19;20097;-65
2022/03/17 09:37:10;;;;;;;65.63;44.42;;;;;;;7.44;76.22;102258.63;7394952;19;20018;-65
2022/03/17 09:39:47;;;;;;;65.45;43.45;;;;;;;7.52;75.97;102261.34;7394882;19;20022;-65
2022/03/17 09:42:18;;;;;;;65.28;44.75;;;;;;;7.61;75.84;102260.59;7395680;19;20014;-65
2022/03/17 09:44:47;;;;;;;62.83;42.85;;;;;;;7.68;75.37;102269.41;7393788;19;20475;-66
2022/03/17 09:47:20;;;;;;;62.03;44.15;;;;;;;7.75;75.31;102272.13;7392839;19;20022;-66
2022/03/17 09:49:52;;;;;;;59.08;42.50;;;;;;;7.82;74.42;102273.06;7396543;19;20018;-66
2022/03/17 09:52:21;;;;;;;58.60;40.85;;;;;;;7.88;73.37;102267.94;7394807;19;20034;-66
2022/03/17 09:54:51;;;;;;;55.33;42.28;;;;;;;7.96;72.64;102273.28;7396144;19;20031;-66
2022/03/17 09:57:20;;;;;;;53.80;40.08;;;;;;;8.01;71.70;102255.03;7394816;19;20015;-65
2022/03/17 09:59:50;;;;;;;55.60;39.95;;;;;;;8.07;70.95;102261.22;7395052;19;20018;-65
2022/03/17 10:02:21;;;;;;;54.72;40.53;;;;;;;8.13;70.43;102263.06;7394696;19;20040;-66
2022/03/17 10:04:51;;;;;;;57.13;41.55;;;;;;;8.20;70.14;102275.34;7396593;19;20014;-66
2022/03/17 10:07:22;;;;;;;62.60;42.22;;;;;;;8.25;69.44;102275.38;7395704;19;20010;-66
2022/03/17 10:09:53;;;;;;;56.50;41.53;;;;;;;8.31;69.46;102268.53;7394203;19;20015;-66
2022/03/17 10:12:23;;;;;;;56.35;41.42;;;;;;;8.36;69.13;102281.63;7394426;19;20022;-66
2022/03/17 10:14:53;;;;;;;56.25;41.47;;;;;;;8.43;68.87;102278.25;7395385;19;20523;-66
2022/03/17 10:17:35;;;;;;;56.53;42.10;;;;;;;8.50;67.67;102283.56;7393663;19;20022;-67
2022/03/17 10:20:18;;;;;;;59.92;41.63;;;;;;;8.56;67.11;102287.13;7394461;19;20018;-65
2022/03/17 10:22:47;;;;;;;59.10;41.58;;;;;;;8.61;68.01;102287.19;7393655;19;20018;-66
2022/03/17 10:25:17;;;;;;;58.15;41.22;;;;;;;8.66;67.59;102295.06;7393332;19;20357;-68
2022/03/17 10:27:49;;;;;;;56.38;40.60;;;;;;;8.71;67.33;102283.81;7393062;19;20014;-66
2022/03/17 10:30:23;;;;;;;52.72;39.58;;;;;;;8.76;67.11;102281.25;7394029;19;20022;-66
2022/03/17 10:33:01;;;;;;;56.13;42.65;;;;;;;8.82;67.04;102288.28;7394746;19;20023;-66
2022/03/17 10:35:34;;;;;;;61.63;45.53;;;;;;;8.87;66.93;102279.63;7392950;19;20018;-66
2022/03/17 10:38:11;;;;;;;59.10;44.00;;;;;;;8.94;66.64;102275.31;7394931;19;20082;-67
2022/03/17 10:40:39;;;;;;;58.90;43.65;;;;;;;9.01;66.78;102274.53;7394975;19;20034;-66
2022/03/17 10:43:22;;;;;;;57.25;40.28;;;;;;;9.06;65.31;102272.81;7392859;19;20036;-66
2022/03/17 10:46:06;;;;;;;54.00;40.40;;;;;;;9.15;65.13;102279.00;7392600;19;20486;-66
2022/03/17 10:48:37;;;;;;;58.35;41.95;;;;;;;9.22;65.78;102281.66;7393386;19;20045;-67
2022/03/17 10:51:06;;;;;;;55.38;40.17;;;;;;;9.27;65.78;102285.19;7392751;19;20026;-66
2022/03/17 10:53:34;;;;;;;59.63;41.05;;;;;;;9.35;65.68;102287.00;7393404;19;20040;-66
2022/03/17 10:56:12;;;;;;;54.30;39.45;;;;;;;9.43;63.21;102282.72;7394251;19;20365;-67
2022/03/17 10:58:46;;;;;;;56.10;41.35;;;;;;;9.50;64.88;102281.03;7394377;19;20466;-67
2022/03/17 11:01:15;;;;;;;56.25;41.72;;;;;;;9.61;64.89;102285.47;7399331;19;20107;-66
2022/03/17 11:03:46;;;;;;;55.13;40.00;;;;;;;9.69;64.46;102279.41;7399723;19;20014;-65
2022/03/17 11:06:15;;;;;;;57.60;41.50;;;;;;;9.79;64.09;102278.59;7401722;19;20019;-66
2022/03/17 11:08:46;;;;;;;53.78;39.97;;;;;;;9.88;63.72;102277.78;7398232;19;20019;-67
2022/03/17 11:11:14;;;;;;;55.45;42.70;;;;;;;9.96;63.24;102276.09;7398615;19;20018;-65
2022/03/17 11:13:42;;;;;;;54.75;39.17;;;;;;;10.03;62.99;102271.75;7398928;19;20018;-66
2022/03/17 11:16:13;;;;;;;52.97;38.95;;;;;;;10.08;62.44;102275.25;7400653;19;20517;-64
2022/03/17 11:18:43;;;;;;;52.75;39.55;;;;;;;10.15;61.79;102271.81;7401074;19;20015;-65
2022/03/17 11:21:19;;;;;;;53.30;40.67;;;;;;;10.21;61.66;102277.09;7401316;19;20014;-66
2022/03/17 11:23:56;;;;;;;51.83;38.28;;;;;;;10.26;61.06;102269.22;7397674;19;20412;-68
2022/03/17 11:26:25;;;;;;;56.17;39.47;;;;;;;10.34;61.43;102258.78;7398408;19;20038;-65
2022/03/17 11:29:02;;;;;;;54.10;39.15;;;;;;;10.40;60.65;102259.69;7400617;19;20036;-66
2022/03/17 11:31:31;;;;;;;54.63;39.03;;;;;;;10.46;60.55;102256.19;7398292;19;20022;-67
2022/03/17 11:34:03;;;;;;;51.80;38.78;;;;;;;10.52;60.28;102247.47;7397360;19;20440;-68
2022/03/17 11:36:34;;;;;;;53.00;37.35;;;;;;;10.55;59.63;102250.09;7400417;19;20025;-66
2022/03/17 11:39:20;;;;;;;52.83;37.95;;;;;;;10.63;58.24;102258.88;7398069;19;20039;-65
2022/03/17 11:41:48;;;;;;;46.33;36.38;;;;;;;10.69;59.78;102248.41;7399834;19;20495;-67